Flight Track Log - Related Links

Times and Time Zones

All times are in EDT time to prevent confusion due to time zone crossing. See the RPA3228 flight status page for this flight to view local times or setup timezone preferences in your user account.


Time Position Orientation Groundspeed Altitude Reporting Facility
EDT Latitude Longitude Course Direction KTS MPH feet Rate Location/Type
Sat 10:32:05 AM 38.9000 -77.0667 83° East 177 204 2,200  Level Potomac TRACON
Sat 10:33:00 AM 38.9866 -76.6403 67° East  Level FlightAware Approximate
Sat 10:33:12 AM 38.9333 -77.1333 303° West 216 249 5,500  Level Potomac TRACON
Sat 10:34:00 AM 39.0368 -76.5080 63° Northeast  Level FlightAware Approximate
Sat 10:34:12 AM 38.9833 -77.1667 333° Northwest 215 247 8,700  Level Potomac TRACON
Sat 10:35:00 AM 39.0906 -76.3775 61° Northeast  Level FlightAware Approximate
Sat 10:35:12 AM 39.0333 -77.1000 46° Northeast 328 377 10,100  Level Potomac TRACON
Sat 10:36:00 AM 39.1286 -76.2429 57° Northeast  Level FlightAware Approximate
Sat 10:37:00 AM 39.1609 -76.1081 83° East  Level FlightAware Approximate
Sat 10:37:11 AM 39.0650 -76.8614 80° East 364 419 13,700  Level Washington Center
Sat 10:38:12 AM 39.0853 -76.7228 79° East 378 435 15,900 2,132 Climbing Washington Center
Sat 10:39:12 AM 39.1053 -76.5814 80° East 395 455 18,000 1,866 Climbing Washington Center
Sat 10:40:11 AM 39.1250 -76.4344 80° East 401 461 19,600 1,450 Climbing Washington Center
Sat 10:41:12 AM 39.1428 -76.2847 81° East 412 474 20,900 1,339 Climbing Washington Center
Sat 10:42:12 AM 39.1686 -76.1083 79° East 432 497 22,300 1,400 Climbing Washington Center
Sat 10:43:12 AM 39.1858 -75.9425 82° East 451 519 23,700 1,300 Climbing Washington Center
Sat 10:44:12 AM 39.2528 -75.8061 58° Northeast 436 502 24,900 1,150 Climbing Washington Center
Sat 10:45:12 AM 39.3447 -75.6828 46° Northeast 450 518 26,000 1,150 Climbing Washington Center
Sat 10:46:12 AM 39.4386 -75.5647 44° Northeast 455 524 27,200 1,150 Climbing Washington Center
Sat 10:47:12 AM 39.5364 -75.4381 45° Northeast 474 545 28,300 603 Climbing Washington Center
Sat 10:49:11 AM 39.7111 -75.2047 46° Northeast 509 586 29,000 235 Climbing New York Center
Sat 10:50:11 AM 39.8064 -75.0592 50° Northeast 497 572 29,000  Level New York Center
Sat 10:51:12 AM 39.8961 -74.9350 47° Northeast 485 558 29,000  Level New York Center
Sat 10:52:10 AM 39.9839 -74.8100 47° Northeast 475 547 29,000  Level New York Center
Sat 10:53:10 AM 40.0650 -74.6956 47° Northeast 465 535 29,000  Level New York Center
Sat 10:54:11 AM 40.1772 -74.5769 39° Northeast 465 535 29,000  Level New York Center
Sat 10:55:12 AM 40.2681 -74.4758 40° Northeast 470 541 29,000  Level New York Center
Sat 10:56:10 AM 40.3692 -74.3694 39° Northeast 470 541 29,000  Level New York Center
Sat 10:58:24 AM 40.6164 -74.2608 18° North 426 490 29,000  Level Boston Center
Sat 10:59:22 AM 40.7481 -74.2317 10° North 426 490 29,000  Level Boston Center
Sat 11:00:22 AM 40.8611 -74.1964 13° North 426 490 29,000  Level Boston Center
Sat 11:01:23 AM 40.9783 -74.1667 11° North 426 490 29,000  Level Boston Center
Sat 11:02:23 AM 41.0892 -74.1339 13° North 426 490 29,000  Level Boston Center
Sat 11:03:23 AM 41.2064 -74.1039 11° North 426 490 29,000  Level Boston Center
Sat 11:05:22 AM 41.4344 -74.0378 12° North 414 476 29,000  Level Boston Center
Sat 11:06:24 AM 41.5475 -74.0072 11° North 414 476 29,000  Level Boston Center
Sat 11:07:25 AM 41.6628 -73.9739 12° North 414 476 29,000  Level Boston Center
Sat 11:08:22 AM 41.7525 -73.9483 12° North 414 476 29,000  Level Boston Center
Sat 11:09:23 AM 41.8822 -73.9153 11° North 408 470 29,000  Level Boston Center
Sat 11:10:23 AM 41.9972 -73.8844 11° North 408 470 29,000  Level Boston Center
Sat 11:11:24 AM 42.1122 -73.8506 12° North 413 475 29,000  Level Boston Center
Sat 11:12:23 AM 42.2253 -73.8194 12° North 413 475 29,000  Level Boston Center
Sat 11:13:24 AM 42.3383 -73.7883 11° North 413 475 29,000  Level Boston Center
Sat 11:14:24 AM 42.4492 -73.7542 13° North 413 475 29,000  Level Boston Center
Sat 11:15:22 AM 42.5619 -73.7256 11° North 413 475 29,000  Level Boston Center
Sat 11:16:24 AM 42.6708 -73.6911 13° North 408 470 29,000  Level Boston Center
Sat 11:17:22 AM 42.7836 -73.6622 11° North 408 470 29,000  Level Boston Center
Sat 11:18:22 AM 42.8881 -73.6275 14° North 400 460 29,000 -600 Level Boston Center
Sat 11:19:22 AM 43.0031 -73.5928 12° North 400 460 27,800 -1,398 Descending Boston Center
Sat 11:20:35 AM 43.1161 -73.5608 12° North 400 460 25,900 -1,727 Descending Boston Center
Sat 11:21:34 AM 43.2561 -73.5206 12° North 418 481 24,000 -942 Descending Boston Center
Sat 11:22:36 AM 43.3731 -73.4825 13° North 423 487 24,000 -541 Level Boston Center
Sat 11:23:36 AM 43.4922 -73.4475 12° North 428 493 22,900 -2,067 Descending Boston Center
Sat 11:24:35 AM 43.6111 -73.4150 11° North 428 493 19,900 -2,900 Descending Boston Center
Sat 11:25:36 AM 43.7219 -73.3822 12° North 421 484 17,100 -2,672 Descending Boston Center
Sat 11:26:34 AM 43.8286 -73.3494 12° North 395 455 14,600 -2,400 Descending Boston Center
Sat 11:27:36 AM 43.9267 -73.3281 North 371 427 12,300 -2,300 Descending Boston Center
Sat 11:28:34 AM 44.0225 -73.3236 North 353 406 10,000 -1,550 Descending Boston Center
Sat 11:29:36 AM 44.1036 -73.3247 359° North 311 358 9,200 -1,180 Descending Boston Center
Sat 11:30:36 AM 44.1786 -73.3433 350° North 278 320 7,600 -1,525 Descending Boston Center
Sat 11:31:34 AM 44.2492 -73.3617 349° North 257 296 6,200 -1,424 Descending Boston Center
Sat 11:32:34 AM 44.3178 -73.3831 347° North 252 290 4,800 -992 Descending Boston Center
Sat 11:33:35 AM 44.3844 -73.4017 349° North 252 290 4,200 -397 Descending Boston Center
Sat 11:34:35 AM 44.4425 -73.4200 347° North 225 259 4,000 -344 Descending Boston Center
Sat 11:35:37 AM 44.4947 -73.4033 13° North 198 228 3,500 -605 Descending Boston Center
Sat 11:36:34 AM 44.5389 -73.3692 29° Northeast 189 217 2,800 -610 Descending Boston Center
Sat 11:37:35 AM 44.5683 -73.3200 50° Northeast 166 191 2,300 -492 Descending Boston Center

Login

Don't have an account? Register now (free) for customized features, flight alerts, and more!